• Join FlightAware (Why Join?)
  • Login
  • US Flag 
11:58AM EDT


 

Airport Tracker/Info


-or-


 

Live Flight TrackerFlight Track Log ✈ TGO993 ✈ 21-May-2013 ✈ CYEN - CYWG

Flight Track Log - Related Links

Times and Time Zones

All times are in EDT time to prevent confusion due to time zone crossing. See the TGO993 flight status page for this flight to view local times or setup timezone preferences in your user account.

Time Position Orientation Groundspeed Altitude Reporting Facility
EDT Latitude Longitude Course Direction KTS MPH feet Rate Location/Type
07:26PM 49.3500 -102.3333 69° East 190 219 13,000  Level Winnipeg Center
07:27PM 49.3667 -102.2667 69° East 190 219 13,000  Level Winnipeg Center
07:28PM 49.4000 -102.1833 58° Northeast 200 230 13,000  Level Winnipeg Center
07:29PM 49.4000 -102.1167 90° East 190 219 13,000  Level Winnipeg Center
07:30PM 49.4167 -102.0333 73° East 190 219 13,000  Level Winnipeg Center
07:31PM 49.4333 -101.9500 73° East 200 230 13,000  Level Winnipeg Center
07:32PM 49.4500 -101.8833 69° East 190 219 13,000 -60 Level Winnipeg Center
07:33PM 49.4833 -101.7833 63° Northeast 200 230 12,900  Descending Winnipeg Center
07:34PM 49.5000 -101.7000 73° East 200 230 13,000  Climbing Winnipeg Center
07:35PM 49.5167 -101.6333 69° East 200 230 13,000  Level Winnipeg Center
07:36PM 49.5333 -101.5500 73° East 200 230 13,000  Level Winnipeg Center
07:37PM 49.5333 -101.4833 90° East 200 230 13,000  Level Winnipeg Center
07:38PM 49.5667 -101.4000 58° Northeast 200 230 13,000  Level Winnipeg Center
07:39PM 49.5833 -101.3333 69° East 200 230 13,000  Level Winnipeg Center
07:40PM 49.6000 -101.2333 76° East 200 230 13,000  Level Winnipeg Center
07:41PM 49.6167 -101.1500 73° East 200 230 13,000  Level Winnipeg Center
07:42PM 49.6333 -101.0667 73° East 200 230 13,000  Level Winnipeg Center
07:43PM 49.6500 -101.0000 69° East 200 230 13,000  Level Winnipeg Center
07:44PM 49.6833 -100.9167 58° Northeast 200 230 13,000  Level Winnipeg Center
07:45PM 49.7000 -100.8167 76° East 200 230 13,000  Level Winnipeg Center
07:46PM 49.7167 -100.7500 69° East 200 230 13,000  Level Winnipeg Center
07:47PM 49.7333 -100.6667 73° East 200 230 13,000  Level Winnipeg Center
07:48PM 49.7500 -100.6000 69° East 200 230 13,000  Level Winnipeg Center
07:49PM 49.7667 -100.5167 73° East 200 230 13,000  Level Winnipeg Center
07:50PM 49.7833 -100.4333 73° East 200 230 13,000  Level Winnipeg Center
07:51PM 49.8000 -100.3333 75° East 200 230 13,000  Level Winnipeg Center
07:52PM 49.8167 -100.2667 69° East 200 230 13,000  Level Winnipeg Center
07:53PM 49.8333 -100.1833 73° East 200 230 13,000  Level Winnipeg Center
07:54PM 49.8500 -100.1000 73° East 200 230 13,000  Level Winnipeg Center
07:55PM 49.8667 -100.0333 69° East 200 230 13,000  Level Winnipeg Center
07:56PM 49.8833 -99.9500 73° East 200 230 13,000  Level Winnipeg Center
07:57PM 49.9000 -99.8667 73° East 190 219 13,000  Level Winnipeg Center
07:58PM 49.8833 -99.7667 104° East 200 230 13,000  Level Winnipeg Center
07:59PM 49.8833 -99.7000 90° East 200 230 13,000  Level Winnipeg Center
08:00PM 49.8833 -99.6167 90° East 200 230 13,000  Level Winnipeg Center
08:01PM 49.8667 -99.5167 104° East 200 230 13,000  Level Winnipeg Center
08:02PM 49.8667 -99.4333 90° East 200 230 13,000  Level Winnipeg Center
08:03PM 49.8667 -99.3500 90° East 200 230 13,000  Level Winnipeg Center
08:04PM 49.8500 -99.2833 111° Southeast 190 219 13,000  Level Winnipeg Center
08:05PM 49.8500 -99.1667 90° East 190 219 13,000  Level Winnipeg Center
08:06PM 49.8500 -99.1000 90° East 190 219 13,100  Climbing Winnipeg Center
08:07PM 49.8500 -99.0167 90° East 190 219 13,100  Level Winnipeg Center
08:08PM 49.8500 -98.9333 90° East 200 230 13,100  Level Winnipeg Center
08:09PM 49.8333 -98.8333 104° East 200 230 13,100  Level Winnipeg Center
08:10PM 49.8333 -98.7500 90° East 200 230 13,100  Level Winnipeg Center
08:11PM 49.8333 -98.6833 90° East 200 230 13,100  Level Winnipeg Center
08:12PM 49.8167 -98.6000 107° East 200 230 13,100  Level Winnipeg Center
08:13PM 49.8167 -98.5167 90° East 200 230 13,100 -60 Level Winnipeg Center
08:14PM 49.8167 -98.4167 90° East 200 230 13,000 -60 Descending Winnipeg Center
08:15PM 49.8000 -98.3333 107° East 200 230 13,000 -120 Level Winnipeg Center
08:16PM 49.8000 -98.2333 90° East 200 230 12,800 -480 Descending Winnipeg Center
08:17PM 49.7833 -98.1500 107° East 210 242 12,100 -900 Descending Winnipeg Center
08:18PM 49.7833 -98.0833 90° East 200 230 11,100 -1,020 Descending Winnipeg Center
08:19PM 49.7833 -97.9833 90° East 200 230 10,100 -960 Descending Winnipeg Center
08:20PM 49.7833 -97.9000 90° East 190 219 9,200 -1,200 Descending Winnipeg Center
08:21PM 49.7833 -97.8167 90° East 200 230 7,700 -1,380 Descending Winnipeg Center
08:22PM 49.7833 -97.7500 90° East 200 230 6,500 -1,200 Descending Winnipeg Center
08:23PM 49.7833 -97.6333 90° East 200 230 5,300 -1,200 Descending Winnipeg Center
08:24PM 49.7833 -97.5667 90° East 190 219 4,100 -1,140 Descending Winnipeg Center
08:25PM 49.7833 -97.4833 90° East 190 219 3,100 -600 Descending Winnipeg Center
08:26PM 49.7833 -97.4000 90° East 170 196 3,000 -120 Descending Winnipeg Center
08:27PM 49.8000 -97.3500 63° Northeast 150 173 2,900 -300 Descending Winnipeg Center
08:28PM 49.8000 -97.3000 90° East 130 150 2,500 -600 Descending Winnipeg Center
08:29PM 49.8167 -97.2500 63° Northeast 120 138 1,800 -600 Descending Winnipeg Center
08:30PM 49.8667 -97.2500 360° North 120 138 1,300 -540 Descending Winnipeg Center
08:31PM 49.8833 -97.2333 33° Northeast 90 104 800 -540 Descending Winnipeg Center